createdAt,value
2022-10-14T00:00:00.683Z,101188.38
2022-10-14T00:05:19.654Z,101180.00
2022-10-14T00:10:34.701Z,101183.56
2022-10-14T00:15:49.991Z,101177.22
2022-10-14T00:21:06.690Z,101175.97
2022-10-14T00:26:21.655Z,101170.38
2022-10-14T00:31:36.639Z,101179.50
2022-10-14T00:36:51.712Z,101181.53
2022-10-14T00:42:06.708Z,101186.59
2022-10-14T00:47:21.979Z,101182.78
2022-10-14T00:52:37.656Z,101180.25
2022-10-14T00:57:52.997Z,101169.88
2022-10-14T01:03:08.401Z,101159.97
2022-10-14T01:08:23.665Z,101158.91
2022-10-14T01:13:39.090Z,101156.13
2022-10-14T01:18:54.969Z,101147.00
2022-10-14T01:24:10.647Z,101137.88
2022-10-14T01:29:25.699Z,101119.09
2022-10-14T01:34:40.689Z,101101.63
2022-10-14T01:39:55.684Z,101087.16
2022-10-14T01:45:11.684Z,101078.97
2022-10-14T01:50:26.679Z,101073.94
2022-10-14T01:55:41.650Z,101084.34
2022-10-14T02:00:59.664Z,101089.94
2022-10-14T02:06:14.671Z,101087.91
2022-10-14T02:11:29.955Z,101090.69
2022-10-14T02:16:45.992Z,101089.19
2022-10-14T02:22:02.947Z,101083.59
2022-10-14T02:27:18.660Z,101095.50
2022-10-14T02:32:34.669Z,101082.84
2022-10-14T02:37:53.648Z,101087.16
2022-10-14T02:43:08.961Z,101076.19
2022-10-14T02:48:24.672Z,101083.84
2022-10-14T02:53:39.731Z,101074.47
2022-10-14T02:58:54.672Z,101064.31
2022-10-14T03:04:10.651Z,101064.31
2022-10-14T03:09:25.958Z,101053.16
2022-10-14T03:14:41.899Z,101034.16
2022-10-14T03:19:59.675Z,101039.19
2022-10-14T03:25:19.965Z,101036.94
2022-10-14T03:30:44.493Z,101031.34
2022-10-14T03:36:13.687Z,101020.19
2022-10-14T03:41:33.676Z,101020.19
2022-10-14T03:46:49.671Z,101030.84
2022-10-14T03:52:10.676Z,101016.88
2022-10-14T03:57:27.007Z,101007.53
2022-10-14T04:02:43.652Z,101006.25
2022-10-14T04:08:24.651Z,100997.13
2022-10-14T04:13:44.686Z,100993.56
2022-10-14T04:18:59.668Z,100978.66
2022-10-14T04:24:15.004Z,100976.84
2022-10-14T04:29:37.790Z,100977.84
2022-10-14T04:34:59.053Z,100964.59
2022-10-14T04:40:14.643Z,100959.03
2022-10-14T04:45:29.955Z,100955.44
2022-10-14T04:50:45.668Z,100951.13
2022-10-14T04:56:29.984Z,100957.03
2022-10-14T05:01:46.771Z,100954.53
2022-10-14T05:07:02.690Z,100951.28
2022-10-14T05:12:20.053Z,100939.91
2022-10-14T05:17:40.757Z,100927.81
2022-10-14T05:23:00.174Z,100913.38
2022-10-14T05:28:15.741Z,100914.47
2022-10-14T05:33:31.968Z,100909.41
2022-10-14T05:38:47.691Z,100903.59
2022-10-14T05:44:03.691Z,100899.81
2022-10-14T05:49:18.715Z,100898.88
2022-10-14T05:54:36.773Z,100889.50
2022-10-14T06:05:08.706Z,100889.84
2022-10-14T06:10:23.750Z,100872.84
2022-10-14T06:15:38.700Z,100881.72
2022-10-14T06:20:53.682Z,100873.91
2022-10-14T06:26:08.677Z,100863.28
2022-10-14T06:31:23.408Z,100866.63
2022-10-14T06:36:39.008Z,100863.06
2022-10-14T06:41:54.691Z,100856.53
2022-10-14T06:47:09.686Z,100845.38
2022-10-14T06:52:25.685Z,100836.25
2022-10-14T06:57:40.679Z,100844.38
2022-10-14T07:02:55.677Z,100840.31
2022-10-14T07:08:14.411Z,100830.44
2022-10-14T07:13:30.676Z,100838.81
2022-10-14T07:18:45.693Z,100827.66
2022-10-14T07:24:00.705Z,100839.56
2022-10-14T07:29:15.688Z,100828.22
2022-10-14T07:34:31.020Z,100832.25
2022-10-14T07:39:46.704Z,100835.03
2022-10-14T07:45:01.701Z,100835.03
2022-10-14T07:50:16.714Z,100836.31
2022-10-14T07:55:31.698Z,100820.47
2022-10-14T08:00:46.508Z,100833.53
2022-10-14T08:06:01.713Z,100835.56
2022-10-14T08:11:16.453Z,100826.44
2022-10-14T08:16:31.697Z,100818.09
2022-10-14T08:21:46.697Z,100815.28
2022-10-14T08:27:02.126Z,100806.22
2022-10-14T08:32:17.775Z,100810.28
2022-10-14T08:37:32.726Z,100809.72
2022-10-14T08:42:47.769Z,100807.50
2022-10-14T08:48:02.725Z,100810.28
2022-10-14T08:53:17.704Z,100804.69
2022-10-14T08:58:32.712Z,100806.72
2022-10-14T09:03:47.814Z,100820.66
2022-10-14T09:09:39.459Z,100812.31
2022-10-14T09:14:54.716Z,100801.16
2022-10-14T09:20:09.994Z,100801.91
2022-10-14T09:25:26.066Z,100800.41
2022-10-14T09:30:41.704Z,100788.50
2022-10-14T09:35:56.997Z,100783.69
2022-10-14T09:41:12.663Z,100777.34
2022-10-14T09:46:27.683Z,100771.03
2022-10-14T09:51:43.036Z,100768.25
2022-10-14T09:56:58.744Z,100770.31
2022-10-14T10:02:13.951Z,100757.53
2022-10-14T10:07:29.759Z,100765.81
2022-10-14T10:12:45.506Z,100759.69
2022-10-14T10:18:00.730Z,100757.66
2022-10-14T10:23:16.682Z,100750.38
2022-10-14T10:28:31.655Z,100745.31
2022-10-14T10:33:46.705Z,100737.50
2022-10-14T10:39:01.681Z,100733.94
2022-10-14T10:44:16.626Z,100732.44
2022-10-14T10:49:31.803Z,100724.09
2022-10-14T10:54:47.175Z,100720.53
2022-10-14T11:00:02.576Z,100720.53
2022-10-14T11:05:17.914Z,100702.34
2022-10-14T11:10:37.357Z,100703.81
2022-10-14T11:15:52.762Z,100693.00
2022-10-14T11:21:09.786Z,100691.19
2022-10-14T11:26:24.942Z,100694.72
2022-10-14T11:31:40.000Z,100691.19
2022-10-14T11:36:57.707Z,100687.66
2022-10-14T11:42:13.072Z,100669.44
2022-10-14T11:47:29.746Z,100670.94
2022-10-14T11:52:44.709Z,100651.72
2022-10-14T11:58:00.004Z,100656.03
2022-10-14T12:03:15.767Z,100643.38
2022-10-14T12:08:33.106Z,100635.22
2022-10-14T12:13:49.741Z,100635.22
2022-10-14T12:19:04.739Z,100626.88
2022-10-14T12:24:19.736Z,100622.03
2022-10-14T12:29:34.478Z,100614.97
2022-10-14T12:34:49.720Z,100626.13
2022-10-14T12:40:05.023Z,100617.03
2022-10-14T12:45:20.745Z,100607.13
2022-10-14T12:50:35.765Z,100599.53
2022-10-14T12:55:50.721Z,100594.75
2022-10-14T13:01:05.711Z,100577.25
2022-10-14T13:06:21.721Z,100568.88
2022-10-14T13:11:36.717Z,100566.88
2022-10-14T13:16:51.780Z,100561.28
2022-10-14T13:22:06.780Z,100565.34
2022-10-14T13:27:21.842Z,100571.66
2022-10-14T13:32:37.451Z,100562.56
2022-10-14T13:37:52.772Z,100562.56
2022-10-14T13:43:07.689Z,100556.22
2022-10-14T13:48:22.723Z,100545.06
2022-10-14T13:53:37.741Z,100551.41
2022-10-14T13:58:52.812Z,100547.88
2022-10-14T14:04:07.742Z,100542.28
2022-10-14T14:09:23.040Z,100533.94
2022-10-14T14:14:40.455Z,100522.03
2022-10-14T14:19:55.720Z,100520.53
2022-10-14T14:25:32.641Z,100521.28
2022-10-14T14:30:54.682Z,100514.00
2022-10-14T14:36:18.092Z,100518.50
2022-10-14T14:41:42.720Z,100520.53
2022-10-14T14:46:57.756Z,100519.06
2022-10-14T14:52:12.771Z,100521.84
2022-10-14T14:57:27.686Z,100526.66
2022-10-14T15:02:42.728Z,100527.41
2022-10-14T15:07:57.798Z,100516.25
2022-10-14T15:13:13.104Z,100520.34
2022-10-14T15:18:28.704Z,100514.00
2022-10-14T15:23:45.054Z,100505.66
2022-10-14T15:29:00.844Z,100518.84
2022-10-14T15:34:15.744Z,100504.91
2022-10-14T15:39:30.747Z,100494.69
2022-10-14T15:44:45.599Z,100488.84
2022-10-14T15:50:00.781Z,100484.41
2022-10-14T15:55:15.724Z,100489.44
2022-10-14T16:00:31.045Z,100480.34
2022-10-14T16:05:46.833Z,100485.41
2022-10-14T16:11:01.721Z,100473.47
2022-10-14T16:16:16.752Z,100475.72
2022-10-14T16:21:31.784Z,100475.72
2022-10-14T16:26:47.043Z,100478.00
2022-10-14T16:32:02.740Z,100475.22
2022-10-14T16:37:17.695Z,100467.03
2022-10-14T16:42:32.782Z,100466.31
2022-10-14T16:47:47.764Z,100493.63
2022-10-14T16:53:05.179Z,100488.28
2022-10-14T16:58:21.756Z,100465.44
2022-10-14T17:03:37.065Z,100493.31
2022-10-14T17:08:52.886Z,100502.63
2022-10-14T17:14:07.738Z,100506.16
2022-10-14T17:19:22.713Z,100491.47
2022-10-14T17:24:37.634Z,100487.41
2022-10-14T17:29:52.723Z,100488.91
2022-10-14T17:40:30.722Z,100492.66
2022-10-14T17:45:45.774Z,100491.69
2022-10-14T17:56:18.744Z,100502.34
2022-10-14T18:01:37.971Z,100507.66
2022-10-14T18:07:05.746Z,100503.38
2022-10-14T18:12:20.778Z,100496.50
2022-10-14T18:17:35.804Z,100500.59
2022-10-14T18:22:50.790Z,100500.38
2022-10-14T18:28:05.969Z,100485.16
2022-10-14T18:33:21.477Z,100497.78
2022-10-14T18:38:36.735Z,100483.31
2022-10-14T18:43:51.732Z,100464.91
2022-10-14T18:49:06.752Z,100468.44
2022-10-14T18:54:21.771Z,100464.91
2022-10-14T18:59:37.169Z,100465.66
2022-10-14T19:04:53.066Z,100464.16
2022-10-14T19:10:08.793Z,100453.00
2022-10-14T19:15:23.596Z,100446.69
2022-10-14T19:20:38.488Z,100449.13
2022-10-14T19:25:53.722Z,100448.28
2022-10-14T19:31:08.760Z,100445.16
2022-10-14T19:36:23.735Z,100438.28
2022-10-14T19:41:38.723Z,100435.50
2022-10-14T19:46:54.049Z,100430.88
2022-10-14T19:52:09.763Z,100436.66
2022-10-14T19:57:25.067Z,100446.53
2022-10-14T20:02:41.866Z,100443.00
2022-10-14T20:07:57.770Z,100447.31
2022-10-14T20:13:12.826Z,100452.88
2022-10-14T20:18:27.760Z,100448.06
2022-10-14T20:23:42.714Z,100439.13
2022-10-14T20:28:57.858Z,100445.44
2022-10-14T20:34:12.974Z,100449.00
2022-10-14T20:39:28.514Z,100442.13
2022-10-14T20:44:43.853Z,100446.38
2022-10-14T20:49:58.737Z,100431.19
2022-10-14T20:55:13.749Z,100431.94
2022-10-14T21:00:29.228Z,100429.91
2022-10-14T21:05:45.003Z,100426.34
2022-10-14T21:11:00.756Z,100429.91
2022-10-14T21:16:15.765Z,100427.88
2022-10-14T21:21:30.753Z,100435.66
2022-10-14T21:26:46.086Z,100425.25
2022-10-14T21:32:02.107Z,100439.97
2022-10-14T21:37:18.121Z,100428.25
2022-10-14T21:42:33.484Z,100436.84
2022-10-14T21:47:49.104Z,100437.59
2022-10-14T21:53:04.802Z,100431.28
2022-10-14T21:58:19.513Z,100429.22
2022-10-14T22:03:34.773Z,100421.38
2022-10-14T22:08:50.051Z,100431.81
2022-10-14T22:14:05.815Z,100419.16
2022-10-14T22:19:21.200Z,100420.88
2022-10-14T22:24:37.130Z,100422.16
2022-10-14T22:29:52.760Z,100407.44
2022-10-14T22:35:08.097Z,100414.31
2022-10-14T22:40:23.734Z,100393.72
2022-10-14T22:45:38.892Z,100402.09
2022-10-14T22:50:54.118Z,100403.16
2022-10-14T22:56:09.788Z,100403.16
2022-10-14T23:01:25.061Z,100401.13
2022-10-14T23:06:40.737Z,100406.16
2022-10-14T23:11:55.750Z,100396.28
2022-10-14T23:17:10.743Z,100399.63
2022-10-14T23:22:26.168Z,100398.88
2022-10-14T23:27:41.791Z,100376.56
2022-10-14T23:32:56.741Z,100379.91
2022-10-14T23:38:12.064Z,100380.66
2022-10-14T23:43:28.068Z,100379.72
2022-10-14T23:48:47.988Z,100374.13
2022-10-14T23:54:11.075Z,100372.63
2022-10-14T23:59:26.757Z,100378.22
